sensor_id;sensor_type;location;lat;lon;timestamp;P1;durP1;ratioP1;P2;durP2;ratioP2
49440;SDS011;35317;51.978;6.296;2022-11-03T00:01:43;19.23;;;3.05;;
49440;SDS011;35317;51.978;6.296;2022-11-03T00:06:47;14.05;;;2.28;;
49440;SDS011;35317;51.978;6.296;2022-11-03T00:11:51;21.77;;;2.92;;
49440;SDS011;35317;51.978;6.296;2022-11-03T00:16:51;16.83;;;2.90;;
49440;SDS011;35317;51.978;6.296;2022-11-03T00:21:52;21.70;;;2.67;;
49440;SDS011;35317;51.978;6.296;2022-11-03T00:26:53;17.50;;;3.03;;
49440;SDS011;35317;51.978;6.296;2022-11-03T00:31:54;17.17;;;2.80;;
49440;SDS011;35317;51.978;6.296;2022-11-03T00:36:54;16.50;;;2.78;;
49440;SDS011;35317;51.978;6.296;2022-11-03T00:41:55;22.00;;;3.08;;
49440;SDS011;35317;51.978;6.296;2022-11-03T00:46:56;14.05;;;2.75;;
49440;SDS011;35317;51.978;6.296;2022-11-03T00:51:57;17.73;;;3.85;;
49440;SDS011;35317;51.978;6.296;2022-11-03T00:56:57;13.57;;;2.63;;
49440;SDS011;35317;51.978;6.296;2022-11-03T01:01:58;18.77;;;2.92;;
49440;SDS011;35317;51.978;6.296;2022-11-03T01:06:59;10.57;;;2.50;;
49440;SDS011;35317;51.978;6.296;2022-11-03T01:12:02;13.85;;;2.67;;
49440;SDS011;35317;51.978;6.296;2022-11-03T01:17:07;15.68;;;2.72;;
49440;SDS011;35317;51.978;6.296;2022-11-03T01:22:10;12.75;;;2.95;;
49440;SDS011;35317;51.978;6.296;2022-11-03T01:27:14;17.48;;;3.00;;
49440;SDS011;35317;51.978;6.296;2022-11-03T01:32:17;17.58;;;2.90;;
49440;SDS011;35317;51.978;6.296;2022-11-03T01:37:18;9.80;;;2.40;;
49440;SDS011;35317;51.978;6.296;2022-11-03T01:42:18;13.25;;;2.63;;
49440;SDS011;35317;51.978;6.296;2022-11-03T01:47:29;16.73;;;2.72;;
49440;SDS011;35317;51.978;6.296;2022-11-03T01:52:33;13.77;;;2.47;;
49440;SDS011;35317;51.978;6.296;2022-11-03T01:57:44;15.75;;;2.95;;
49440;SDS011;35317;51.978;6.296;2022-11-03T02:02:57;17.05;;;2.65;;
49440;SDS011;35317;51.978;6.296;2022-11-03T02:08:01;14.93;;;2.80;;
49440;SDS011;35317;51.978;6.296;2022-11-03T02:13:13;13.73;;;2.72;;
49440;SDS011;35317;51.978;6.296;2022-11-03T02:18:21;10.30;;;2.40;;
49440;SDS011;35317;51.978;6.296;2022-11-03T02:23:31;12.17;;;2.40;;
49440;SDS011;35317;51.978;6.296;2022-11-03T02:28:42;13.50;;;2.60;;
49440;SDS011;35317;51.978;6.296;2022-11-03T02:33:48;15.73;;;2.45;;
49440;SDS011;35317;51.978;6.296;2022-11-03T02:39:05;15.15;;;2.88;;
49440;SDS011;35317;51.978;6.296;2022-11-03T02:44:15;15.30;;;2.40;;
49440;SDS011;35317;51.978;6.296;2022-11-03T02:49:18;15.35;;;2.88;;
49440;SDS011;35317;51.978;6.296;2022-11-03T02:54:20;16.77;;;3.08;;
49440;SDS011;35317;51.978;6.296;2022-11-03T02:59:26;17.63;;;3.00;;
49440;SDS011;35317;51.978;6.296;2022-11-03T03:04:33;16.00;;;3.33;;
49440;SDS011;35317;51.978;6.296;2022-11-03T03:09:50;13.95;;;3.90;;
49440;SDS011;35317;51.978;6.296;2022-11-03T03:15:04;14.88;;;2.50;;
49440;SDS011;35317;51.978;6.296;2022-11-03T03:25:35;14.15;;;2.85;;
49440;SDS011;35317;51.978;6.296;2022-11-03T03:30:48;21.58;;;3.00;;
49440;SDS011;35317;51.978;6.296;2022-11-03T03:35:51;9.85;;;2.83;;
49440;SDS011;35317;51.978;6.296;2022-11-03T03:40:55;22.10;;;3.30;;
49440;SDS011;35317;51.978;6.296;2022-11-03T03:46:00;11.95;;;2.40;;
49440;SDS011;35317;51.978;6.296;2022-11-03T03:51:07;12.02;;;2.60;;
49440;SDS011;35317;51.978;6.296;2022-11-03T03:56:08;12.52;;;2.22;;
49440;SDS011;35317;51.978;6.296;2022-11-03T04:01:10;13.82;;;2.50;;
49440;SDS011;35317;51.978;6.296;2022-11-03T04:06:11;14.13;;;2.47;;
49440;SDS011;35317;51.978;6.296;2022-11-03T04:11:12;17.10;;;2.92;;
49440;SDS011;35317;51.978;6.296;2022-11-03T04:16:31;11.65;;;2.53;;
49440;SDS011;35317;51.978;6.296;2022-11-03T04:21:50;15.35;;;3.20;;
49440;SDS011;35317;51.978;6.296;2022-11-03T04:32:35;9.10;;;2.30;;
49440;SDS011;35317;51.978;6.296;2022-11-03T04:37:36;12.73;;;2.83;;
49440;SDS011;35317;51.978;6.296;2022-11-03T04:42:37;13.73;;;2.63;;
49440;SDS011;35317;51.978;6.296;2022-11-03T04:47:38;14.23;;;2.63;;
49440;SDS011;35317;51.978;6.296;2022-11-03T04:52:39;16.55;;;3.55;;
49440;SDS011;35317;51.978;6.296;2022-11-03T04:57:39;16.48;;;2.75;;
49440;SDS011;35317;51.978;6.296;2022-11-03T05:02:41;16.98;;;2.67;;
49440;SDS011;35317;51.978;6.296;2022-11-03T05:07:45;18.60;;;2.78;;
49440;SDS011;35317;51.978;6.296;2022-11-03T05:12:49;12.20;;;2.28;;
49440;SDS011;35317;51.978;6.296;2022-11-03T05:17:50;12.77;;;2.85;;
49440;SDS011;35317;51.978;6.296;2022-11-03T05:22:51;13.10;;;2.75;;
49440;SDS011;35317;51.978;6.296;2022-11-03T05:27:52;10.80;;;2.83;;
49440;SDS011;35317;51.978;6.296;2022-11-03T05:32:53;14.07;;;2.65;;
49440;SDS011;35317;51.978;6.296;2022-11-03T05:37:53;12.73;;;2.90;;
49440;SDS011;35317;51.978;6.296;2022-11-03T05:42:58;11.60;;;2.03;;
49440;SDS011;35317;51.978;6.296;2022-11-03T05:48:01;13.52;;;2.40;;
49440;SDS011;35317;51.978;6.296;2022-11-03T05:58:21;16.03;;;3.63;;
49440;SDS011;35317;51.978;6.296;2022-11-03T06:03:39;14.05;;;2.92;;
49440;SDS011;35317;51.978;6.296;2022-11-03T06:08:39;9.10;;;2.28;;
49440;SDS011;35317;51.978;6.296;2022-11-03T06:13:40;14.02;;;2.50;;
49440;SDS011;35317;51.978;6.296;2022-11-03T06:18:41;14.63;;;2.83;;
49440;SDS011;35317;51.978;6.296;2022-11-03T06:23:42;14.38;;;2.75;;
49440;SDS011;35317;51.978;6.296;2022-11-03T06:28:43;14.77;;;2.90;;
49440;SDS011;35317;51.978;6.296;2022-11-03T06:33:44;11.57;;;3.50;;
49440;SDS011;35317;51.978;6.296;2022-11-03T06:38:55;11.40;;;2.83;;
49440;SDS011;35317;51.978;6.296;2022-11-03T06:44:23;14.93;;;3.25;;
49440;SDS011;35317;51.978;6.296;2022-11-03T06:49:33;16.58;;;3.40;;
49440;SDS011;35317;51.978;6.296;2022-11-03T06:54:34;13.63;;;2.92;;
49440;SDS011;35317;51.978;6.296;2022-11-03T06:59:36;17.50;;;4.95;;
49440;SDS011;35317;51.978;6.296;2022-11-03T07:04:37;15.52;;;3.58;;
49440;SDS011;35317;51.978;6.296;2022-11-03T07:09:39;10.68;;;3.15;;
49440;SDS011;35317;51.978;6.296;2022-11-03T07:14:39;16.77;;;3.17;;
49440;SDS011;35317;51.978;6.296;2022-11-03T07:19:41;16.20;;;3.08;;
49440;SDS011;35317;51.978;6.296;2022-11-03T07:24:44;16.40;;;3.40;;
49440;SDS011;35317;51.978;6.296;2022-11-03T07:29:52;17.40;;;3.05;;
49440;SDS011;35317;51.978;6.296;2022-11-03T07:40:18;17.95;;;3.60;;
49440;SDS011;35317;51.978;6.296;2022-11-03T07:45:30;15.23;;;3.60;;
49440;SDS011;35317;51.978;6.296;2022-11-03T07:50:41;18.13;;;3.40;;
49440;SDS011;35317;51.978;6.296;2022-11-03T07:55:43;10.70;;;2.83;;
49440;SDS011;35317;51.978;6.296;2022-11-03T08:00:47;17.45;;;3.20;;
49440;SDS011;35317;51.978;6.296;2022-11-03T08:05:47;14.00;;;2.95;;
49440;SDS011;35317;51.978;6.296;2022-11-03T08:10:48;16.52;;;3.47;;
49440;SDS011;35317;51.978;6.296;2022-11-03T08:15:49;14.70;;;3.75;;
49440;SDS011;35317;51.978;6.296;2022-11-03T08:20:50;11.13;;;3.15;;
49440;SDS011;35317;51.978;6.296;2022-11-03T08:25:50;20.85;;;3.55;;
49440;SDS011;35317;51.978;6.296;2022-11-03T08:30:51;16.05;;;3.78;;
49440;SDS011;35317;51.978;6.296;2022-11-03T08:35:52;10.68;;;3.08;;
49440;SDS011;35317;51.978;6.296;2022-11-03T08:40:54;16.30;;;4.13;;
49440;SDS011;35317;51.978;6.296;2022-11-03T08:45:57;11.85;;;3.42;;
49440;SDS011;35317;51.978;6.296;2022-11-03T08:50:58;11.48;;;3.20;;
49440;SDS011;35317;51.978;6.296;2022-11-03T08:55:58;15.40;;;3.40;;
49440;SDS011;35317;51.978;6.296;2022-11-03T09:00:59;12.32;;;3.53;;
49440;SDS011;35317;51.978;6.296;2022-11-03T09:06:00;13.15;;;3.75;;
49440;SDS011;35317;51.978;6.296;2022-11-03T09:11:01;13.02;;;3.40;;
49440;SDS011;35317;51.978;6.296;2022-11-03T09:16:01;18.85;;;4.30;;
49440;SDS011;35317;51.978;6.296;2022-11-03T09:21:02;10.90;;;3.05;;
49440;SDS011;35317;51.978;6.296;2022-11-03T09:26:03;17.33;;;3.25;;
49440;SDS011;35317;51.978;6.296;2022-11-03T09:31:05;11.15;;;3.05;;
49440;SDS011;35317;51.978;6.296;2022-11-03T09:36:06;17.05;;;3.25;;
49440;SDS011;35317;51.978;6.296;2022-11-03T09:41:07;10.90;;;2.50;;
49440;SDS011;35317;51.978;6.296;2022-11-03T09:46:09;16.67;;;3.72;;
49440;SDS011;35317;51.978;6.296;2022-11-03T09:51:13;11.50;;;2.53;;
49440;SDS011;35317;51.978;6.296;2022-11-03T09:56:20;14.35;;;2.90;;
49440;SDS011;35317;51.978;6.296;2022-11-03T10:01:22;12.20;;;2.75;;
49440;SDS011;35317;51.978;6.296;2022-11-03T10:06:26;13.07;;;3.20;;
49440;SDS011;35317;51.978;6.296;2022-11-03T10:11:28;11.63;;;3.10;;
49440;SDS011;35317;51.978;6.296;2022-11-03T10:16:30;12.60;;;3.28;;
49440;SDS011;35317;51.978;6.296;2022-11-03T10:21:31;7.82;;;2.50;;
49440;SDS011;35317;51.978;6.296;2022-11-03T10:31:51;11.50;;;2.75;;
49440;SDS011;35317;51.978;6.296;2022-11-03T10:42:17;13.55;;;2.65;;
49440;SDS011;35317;51.978;6.296;2022-11-03T10:47:33;12.63;;;2.90;;
49440;SDS011;35317;51.978;6.296;2022-11-03T10:52:34;16.08;;;2.60;;
49440;SDS011;35317;51.978;6.296;2022-11-03T10:57:35;10.27;;;2.40;;
49440;SDS011;35317;51.978;6.296;2022-11-03T11:02:35;11.57;;;2.58;;
49440;SDS011;35317;51.978;6.296;2022-11-03T11:07:39;18.85;;;3.63;;
49440;SDS011;35317;51.978;6.296;2022-11-03T11:18:05;9.95;;;2.40;;
49440;SDS011;35317;51.978;6.296;2022-11-03T11:28:28;15.77;;;2.75;;
49440;SDS011;35317;51.978;6.296;2022-11-03T11:33:29;9.63;;;2.45;;
49440;SDS011;35317;51.978;6.296;2022-11-03T11:38:52;7.40;;;2.53;;
49440;SDS011;35317;51.978;6.296;2022-11-03T11:44:25;12.25;;;2.40;;
49440;SDS011;35317;51.978;6.296;2022-11-03T11:49:42;15.00;;;2.53;;
49440;SDS011;35317;51.978;6.296;2022-11-03T11:54:43;10.90;;;3.30;;
49440;SDS011;35317;51.978;6.296;2022-11-03T11:59:44;10.98;;;2.85;;
49440;SDS011;35317;51.978;6.296;2022-11-03T12:04:46;7.22;;;1.80;;
49440;SDS011;35317;51.978;6.296;2022-11-03T12:09:53;10.80;;;2.90;;
49440;SDS011;35317;51.978;6.296;2022-11-03T12:14:54;6.75;;;2.33;;
49440;SDS011;35317;51.978;6.296;2022-11-03T12:19:54;7.63;;;2.33;;
49440;SDS011;35317;51.978;6.296;2022-11-03T12:24:56;10.20;;;2.50;;
49440;SDS011;35317;51.978;6.296;2022-11-03T12:30:13;7.32;;;2.28;;
49440;SDS011;35317;51.978;6.296;2022-11-03T12:35:16;9.13;;;2.15;;
49440;SDS011;35317;51.978;6.296;2022-11-03T12:40:17;9.35;;;2.00;;
49440;SDS011;35317;51.978;6.296;2022-11-03T12:45:17;9.48;;;2.20;;
49440;SDS011;35317;51.978;6.296;2022-11-03T12:50:18;10.65;;;1.80;;
49440;SDS011;35317;51.978;6.296;2022-11-03T12:55:19;12.93;;;2.55;;
49440;SDS011;35317;51.978;6.296;2022-11-03T13:00:20;8.43;;;1.80;;
49440;SDS011;35317;51.978;6.296;2022-11-03T13:05:20;6.60;;;2.40;;
49440;SDS011;35317;51.978;6.296;2022-11-03T13:10:21;6.82;;;1.70;;
49440;SDS011;35317;51.978;6.296;2022-11-03T13:15:22;6.60;;;1.70;;
49440;SDS011;35317;51.978;6.296;2022-11-03T13:20:23;8.70;;;2.10;;
49440;SDS011;35317;51.978;6.296;2022-11-03T13:25:24;5.93;;;1.65;;
49440;SDS011;35317;51.978;6.296;2022-11-03T13:30:25;5.93;;;1.90;;
49440;SDS011;35317;51.978;6.296;2022-11-03T13:35:26;11.27;;;1.80;;
49440;SDS011;35317;51.978;6.296;2022-11-03T13:40:27;9.73;;;2.28;;
49440;SDS011;35317;51.978;6.296;2022-11-03T13:45:28;10.43;;;1.90;;
49440;SDS011;35317;51.978;6.296;2022-11-03T13:50:28;8.68;;;2.03;;
49440;SDS011;35317;51.978;6.296;2022-11-03T13:55:29;6.32;;;1.90;;
49440;SDS011;35317;51.978;6.296;2022-11-03T14:00:30;5.97;;;1.98;;
49440;SDS011;35317;51.978;6.296;2022-11-03T14:05:31;8.57;;;1.83;;
49440;SDS011;35317;51.978;6.296;2022-11-03T14:10:32;9.82;;;1.60;;
49440;SDS011;35317;51.978;6.296;2022-11-03T14:15:33;8.70;;;1.70;;
49440;SDS011;35317;51.978;6.296;2022-11-03T14:20:33;9.00;;;2.30;;
49440;SDS011;35317;51.978;6.296;2022-11-03T14:25:34;8.02;;;1.60;;
49440;SDS011;35317;51.978;6.296;2022-11-03T14:30:35;9.32;;;2.75;;
49440;SDS011;35317;51.978;6.296;2022-11-03T14:35:35;11.25;;;2.35;;
49440;SDS011;35317;51.978;6.296;2022-11-03T14:40:36;9.93;;;1.85;;
49440;SDS011;35317;51.978;6.296;2022-11-03T14:45:56;8.68;;;2.10;;
49440;SDS011;35317;51.978;6.296;2022-11-03T14:50:56;8.35;;;2.22;;
49440;SDS011;35317;51.978;6.296;2022-11-03T14:55:57;13.55;;;2.50;;
49440;SDS011;35317;51.978;6.296;2022-11-03T15:00:58;9.80;;;2.45;;
49440;SDS011;35317;51.978;6.296;2022-11-03T15:05:59;7.78;;;2.63;;
49440;SDS011;35317;51.978;6.296;2022-11-03T15:11:00;4.80;;;2.17;;
49440;SDS011;35317;51.978;6.296;2022-11-03T15:16:01;11.00;;;2.40;;
49440;SDS011;35317;51.978;6.296;2022-11-03T15:21:02;10.52;;;2.70;;
49440;SDS011;35317;51.978;6.296;2022-11-03T15:26:03;9.35;;;2.90;;
49440;SDS011;35317;51.978;6.296;2022-11-03T15:31:05;7.97;;;2.35;;
49440;SDS011;35317;51.978;6.296;2022-11-03T15:36:05;9.27;;;2.55;;
49440;SDS011;35317;51.978;6.296;2022-11-03T15:41:07;9.63;;;2.90;;
49440;SDS011;35317;51.978;6.296;2022-11-03T15:46:18;9.05;;;3.25;;
49440;SDS011;35317;51.978;6.296;2022-11-03T15:51:18;7.25;;;3.60;;
49440;SDS011;35317;51.978;6.296;2022-11-03T15:56:19;7.97;;;3.38;;
49440;SDS011;35317;51.978;6.296;2022-11-03T16:01:29;9.68;;;3.17;;
49440;SDS011;35317;51.978;6.296;2022-11-03T16:06:29;11.68;;;4.00;;
49440;SDS011;35317;51.978;6.296;2022-11-03T16:11:30;11.95;;;4.07;;
49440;SDS011;35317;51.978;6.296;2022-11-03T16:16:31;11.27;;;4.20;;
49440;SDS011;35317;51.978;6.296;2022-11-03T16:21:32;12.70;;;4.47;;
49440;SDS011;35317;51.978;6.296;2022-11-03T16:26:32;10.20;;;3.75;;
49440;SDS011;35317;51.978;6.296;2022-11-03T16:31:33;14.85;;;4.78;;
49440;SDS011;35317;51.978;6.296;2022-11-03T16:36:34;8.70;;;4.03;;
49440;SDS011;35317;51.978;6.296;2022-11-03T16:41:36;10.45;;;3.15;;
49440;SDS011;35317;51.978;6.296;2022-11-03T16:46:37;11.40;;;4.78;;
49440;SDS011;35317;51.978;6.296;2022-11-03T16:51:37;13.57;;;4.40;;
49440;SDS011;35317;51.978;6.296;2022-11-03T16:56:38;14.75;;;4.88;;
49440;SDS011;35317;51.978;6.296;2022-11-03T17:01:39;11.15;;;4.85;;
49440;SDS011;35317;51.978;6.296;2022-11-03T17:06:39;13.93;;;5.32;;
49440;SDS011;35317;51.978;6.296;2022-11-03T17:11:40;14.73;;;5.25;;
49440;SDS011;35317;51.978;6.296;2022-11-03T17:16:41;15.25;;;6.03;;
49440;SDS011;35317;51.978;6.296;2022-11-03T17:21:44;19.40;;;6.65;;
49440;SDS011;35317;51.978;6.296;2022-11-03T17:26:51;12.27;;;7.00;;
49440;SDS011;35317;51.978;6.296;2022-11-03T17:31:57;20.42;;;7.40;;
49440;SDS011;35317;51.978;6.296;2022-11-03T17:36:58;14.25;;;7.20;;
49440;SDS011;35317;51.978;6.296;2022-11-03T17:42:00;17.90;;;8.05;;
49440;SDS011;35317;51.978;6.296;2022-11-03T17:47:14;20.30;;;8.25;;
49440;SDS011;35317;51.978;6.296;2022-11-03T17:57:22;16.42;;;8.68;;
49440;SDS011;35317;51.978;6.296;2022-11-03T18:02:24;19.85;;;8.60;;
49440;SDS011;35317;51.978;6.296;2022-11-03T18:07:27;16.10;;;8.70;;
49440;SDS011;35317;51.978;6.296;2022-11-03T18:12:32;19.75;;;8.77;;
49440;SDS011;35317;51.978;6.296;2022-11-03T18:17:57;17.13;;;8.43;;
49440;SDS011;35317;51.978;6.296;2022-11-03T18:23:11;14.88;;;9.35;;
49440;SDS011;35317;51.978;6.296;2022-11-03T18:28:17;24.58;;;8.88;;
49440;SDS011;35317;51.978;6.296;2022-11-03T18:38:25;13.50;;;8.27;;
49440;SDS011;35317;51.978;6.296;2022-11-03T18:43:27;17.15;;;7.97;;
49440;SDS011;35317;51.978;6.296;2022-11-03T18:48:28;15.63;;;8.50;;
49440;SDS011;35317;51.978;6.296;2022-11-03T18:53:29;15.50;;;7.45;;
49440;SDS011;35317;51.978;6.296;2022-11-03T18:58:30;15.20;;;7.85;;
49440;SDS011;35317;51.978;6.296;2022-11-03T19:03:32;15.40;;;7.85;;
49440;SDS011;35317;51.978;6.296;2022-11-03T19:08:33;18.20;;;8.65;;
49440;SDS011;35317;51.978;6.296;2022-11-03T19:13:36;16.10;;;8.73;;
49440;SDS011;35317;51.978;6.296;2022-11-03T19:18:40;18.17;;;8.02;;
49440;SDS011;35317;51.978;6.296;2022-11-03T19:23:43;15.07;;;8.02;;
49440;SDS011;35317;51.978;6.296;2022-11-03T19:28:44;17.77;;;9.57;;
49440;SDS011;35317;51.978;6.296;2022-11-03T19:33:48;18.45;;;9.27;;
49440;SDS011;35317;51.978;6.296;2022-11-03T19:38:50;20.77;;;8.80;;
49440;SDS011;35317;51.978;6.296;2022-11-03T19:43:51;14.05;;;8.52;;
49440;SDS011;35317;51.978;6.296;2022-11-03T19:48:52;16.52;;;8.80;;
49440;SDS011;35317;51.978;6.296;2022-11-03T19:53:54;11.98;;;8.30;;
49440;SDS011;35317;51.978;6.296;2022-11-03T19:58:56;13.07;;;8.10;;
49440;SDS011;35317;51.978;6.296;2022-11-03T20:04:01;13.82;;;7.57;;
49440;SDS011;35317;51.978;6.296;2022-11-03T20:09:03;16.52;;;8.85;;
49440;SDS011;35317;51.978;6.296;2022-11-03T20:14:08;19.55;;;9.70;;
49440;SDS011;35317;51.978;6.296;2022-11-03T20:19:15;16.27;;;9.27;;
49440;SDS011;35317;51.978;6.296;2022-11-03T20:24:16;18.95;;;10.05;;
49440;SDS011;35317;51.978;6.296;2022-11-03T20:29:18;15.45;;;8.88;;
49440;SDS011;35317;51.978;6.296;2022-11-03T20:34:19;22.02;;;9.75;;
49440;SDS011;35317;51.978;6.296;2022-11-03T20:39:21;17.55;;;10.27;;
49440;SDS011;35317;51.978;6.296;2022-11-03T20:44:23;19.13;;;10.63;;
49440;SDS011;35317;51.978;6.296;2022-11-03T20:49:23;15.68;;;9.80;;
49440;SDS011;35317;51.978;6.296;2022-11-03T20:54:24;15.85;;;10.82;;
49440;SDS011;35317;51.978;6.296;2022-11-03T20:59:25;15.77;;;9.75;;
49440;SDS011;35317;51.978;6.296;2022-11-03T21:04:27;16.65;;;9.48;;
49440;SDS011;35317;51.978;6.296;2022-11-03T21:09:30;16.13;;;8.50;;
49440;SDS011;35317;51.978;6.296;2022-11-03T21:14:30;11.57;;;7.82;;
49440;SDS011;35317;51.978;6.296;2022-11-03T21:19:34;10.80;;;6.57;;
49440;SDS011;35317;51.978;6.296;2022-11-03T21:24:53;9.57;;;6.35;;
49440;SDS011;35317;51.978;6.296;2022-11-03T21:29:54;9.60;;;5.72;;
49440;SDS011;35317;51.978;6.296;2022-11-03T21:34:55;10.18;;;6.63;;
49440;SDS011;35317;51.978;6.296;2022-11-03T21:39:56;9.65;;;6.20;;
49440;SDS011;35317;51.978;6.296;2022-11-03T21:44:57;8.52;;;5.95;;
49440;SDS011;35317;51.978;6.296;2022-11-03T21:49:58;10.15;;;5.82;;
49440;SDS011;35317;51.978;6.296;2022-11-03T21:54:59;8.95;;;6.45;;
49440;SDS011;35317;51.978;6.296;2022-11-03T22:00:01;8.75;;;6.35;;
49440;SDS011;35317;51.978;6.296;2022-11-03T22:05:03;9.18;;;6.40;;
49440;SDS011;35317;51.978;6.296;2022-11-03T22:10:05;10.88;;;6.57;;
49440;SDS011;35317;51.978;6.296;2022-11-03T22:15:06;9.35;;;6.25;;
49440;SDS011;35317;51.978;6.296;2022-11-03T22:20:25;9.05;;;6.55;;
49440;SDS011;35317;51.978;6.296;2022-11-03T22:25:45;11.63;;;7.43;;
49440;SDS011;35317;51.978;6.296;2022-11-03T22:31:05;8.13;;;6.47;;
49440;SDS011;35317;51.978;6.296;2022-11-03T22:36:24;7.28;;;5.15;;
49440;SDS011;35317;51.978;6.296;2022-11-03T22:41:25;6.13;;;5.05;;
49440;SDS011;35317;51.978;6.296;2022-11-03T22:46:44;7.80;;;5.75;;
49440;SDS011;35317;51.978;6.296;2022-11-03T22:51:45;9.23;;;6.18;;
49440;SDS011;35317;51.978;6.296;2022-11-03T22:56:46;8.15;;;6.90;;
49440;SDS011;35317;51.978;6.296;2022-11-03T23:01:49;9.93;;;6.80;;
49440;SDS011;35317;51.978;6.296;2022-11-03T23:06:50;7.72;;;5.18;;
49440;SDS011;35317;51.978;6.296;2022-11-03T23:11:50;6.78;;;5.38;;
49440;SDS011;35317;51.978;6.296;2022-11-03T23:16:51;5.75;;;4.88;;
49440;SDS011;35317;51.978;6.296;2022-11-03T23:21:52;7.57;;;4.40;;
49440;SDS011;35317;51.978;6.296;2022-11-03T23:26:53;10.32;;;4.03;;
49440;SDS011;35317;51.978;6.296;2022-11-03T23:31:54;7.47;;;4.10;;
49440;SDS011;35317;51.978;6.296;2022-11-03T23:36:56;5.68;;;3.83;;
49440;SDS011;35317;51.978;6.296;2022-11-03T23:42:12;5.82;;;3.25;;
49440;SDS011;35317;51.978;6.296;2022-11-03T23:47:13;5.45;;;3.35;;
49440;SDS011;35317;51.978;6.296;2022-11-03T23:52:32;5.82;;;3.75;;
49440;SDS011;35317;51.978;6.296;2022-11-03T23:57:33;6.82;;;4.32;;
